Time;durP1;ratioP1;P1;durP2;ratioP2;P2;SDS_P1;SDS_P2;PMS_P1;PMS_P2;Temp;Humidity;BMP_temperature;BMP_pressure;BME280_temperature;BME280_humidity;BME280_pressure;Samples;Min_cycle;Max_cycle;Signal;HPM_P1;HPM_P2
2021/05/28 00:01:47;;;;;;;3.57;3.07;;;;;;;8.39;100.00;100991.13;4954449;28;20243;-73
2021/05/28 00:04:13;;;;;;;3.77;3.40;;;;;;;8.37;100.00;100992.84;4952132;28;20227;-73
2021/05/28 00:06:39;;;;;;;5.77;3.20;;;;;;;8.40;100.00;100997.19;4946780;28;20790;-73
2021/05/28 00:09:06;;;;;;;3.33;3.03;;;;;;;8.44;100.00;101004.09;4952058;28;20295;-73
2021/05/28 00:11:33;;;;;;;3.10;2.80;;;;;;;8.48;100.00;101006.63;4946417;28;20687;-73
2021/05/28 00:13:59;;;;;;;3.30;2.90;;;;;;;8.50;100.00;101007.47;4959843;28;20246;-72
2021/05/28 00:16:25;;;;;;;3.57;3.27;;;;;;;8.50;100.00;101007.47;4947265;28;20654;-73
2021/05/28 00:18:51;;;;;;;4.00;3.60;;;;;;;8.51;100.00;101009.22;4950144;28;20200;-73
2021/05/28 00:21:17;;;;;;;3.93;3.50;;;;;;;8.52;100.00;101000.53;4953074;28;20759;-73
2021/05/28 00:23:43;;;;;;;4.90;3.90;;;;;;;8.55;100.00;101009.16;4949131;28;20206;-73
2021/05/28 00:26:10;;;;;;;4.87;3.50;;;;;;;8.57;100.00;101012.63;4952834;28;20273;-73
2021/05/28 00:28:37;;;;;;;4.47;3.93;;;;;;;8.60;100.00;101020.34;4950572;28;20212;-72
2021/05/28 00:31:03;;;;;;;7.33;4.00;;;;;;;8.66;100.00;101025.50;4950324;28;20569;-73
2021/05/28 00:33:30;;;;;;;4.67;4.17;;;;;;;8.70;100.00;101025.44;4938692;28;20219;-73
2021/05/28 00:35:56;;;;;;;5.60;4.40;;;;;;;8.74;100.00;101022.81;4927042;29;20240;-73
2021/05/28 00:38:22;;;;;;;5.37;4.43;;;;;;;8.77;100.00;101026.22;4952445;28;20271;-72
2021/05/28 00:40:48;;;;;;;5.80;4.27;;;;;;;8.80;100.00;101028.78;4948677;28;20764;-72
2021/05/28 00:43:14;;;;;;;5.20;4.03;;;;;;;8.80;100.00;101018.38;4936730;28;20565;-73
2021/05/28 00:45:40;;;;;;;6.97;4.60;;;;;;;8.81;100.00;101027.03;4948041;28;20242;-73
2021/05/28 00:48:07;;;;;;;5.07;4.50;;;;;;;8.82;100.00;101019.22;4946915;28;20797;-72
2021/05/28 00:50:33;;;;;;;5.77;4.67;;;;;;;8.83;100.00;101025.28;4950604;28;20680;-73
2021/05/28 00:53:00;;;;;;;6.63;5.17;;;;;;;8.82;100.00;101024.44;4954930;28;20234;-73
2021/05/28 00:55:27;;;;;;;5.67;4.90;;;;;;;8.83;100.00;101026.16;4948857;28;20238;-72
2021/05/28 00:57:54;;;;;;;7.63;4.80;;;;;;;8.83;100.00;101025.28;4945703;28;20208;-73
2021/05/28 01:00:22;;;;;;;6.40;4.73;;;;;;;8.86;100.00;101026.09;4955551;28;20255;-73
2021/05/28 01:02:48;;;;;;;6.50;4.87;;;;;;;8.88;100.00;101029.56;4941979;28;20205;-73
2021/05/28 01:05:14;;;;;;;6.43;5.37;;;;;;;8.88;100.00;101026.97;4913305;29;20726;-72
2021/05/28 01:07:40;;;;;;;6.20;4.70;;;;;;;8.94;100.00;101030.38;4926178;28;20209;-73
2021/05/28 01:10:07;;;;;;;5.47;4.93;;;;;;;8.96;100.00;101039.84;4950985;28;20203;-73
2021/05/28 01:12:33;;;;;;;5.30;4.63;;;;;;;8.98;100.00;101037.25;4943259;28;20233;-72
2021/05/28 01:15:00;;;;;;;6.30;4.10;;;;;;;8.98;100.00;101032.03;4948387;28;20214;-73
2021/05/28 01:17:27;;;;;;;5.07;4.37;;;;;;;8.99;100.00;101034.63;4948712;28;20672;-73
2021/05/28 01:19:54;;;;;;;5.73;5.00;;;;;;;9.00;100.00;101035.47;4946517;28;20276;-73
2021/05/28 01:22:21;;;;;;;6.47;4.97;;;;;;;9.01;100.00;101035.47;4931293;28;20241;-73
2021/05/28 01:24:48;;;;;;;5.33;4.57;;;;;;;9.02;100.00;101034.59;4950265;28;20229;-73
2021/05/28 01:27:14;;;;;;;5.00;4.33;;;;;;;8.99;100.00;101044.16;4942685;28;20207;-73
2021/05/28 01:29:40;;;;;;;5.60;4.73;;;;;;;8.98;100.00;101035.50;4950995;28;20225;-73
2021/05/28 01:32:06;;;;;;;5.47;4.80;;;;;;;8.97;100.00;101039.00;4943422;28;20209;-72
2021/05/28 01:34:32;;;;;;;5.93;4.37;;;;;;;8.96;100.00;101041.59;4958673;28;20714;-72
2021/05/28 01:36:58;;;;;;;5.93;5.00;;;;;;;8.92;100.00;101048.59;4948084;28;20207;-72
2021/05/28 01:39:24;;;;;;;6.53;4.60;;;;;;;8.91;100.00;101045.09;4955111;28;20224;-72
2021/05/28 01:41:50;;;;;;;6.83;4.83;;;;;;;8.92;100.00;101048.59;4943567;28;20208;-72
2021/05/28 01:48:04;;;;;;;6.53;5.30;;;;;;;8.90;100.00;101053.81;4954882;28;20181;-73
2021/05/28 01:50:42;;;;;;;7.53;5.23;;;;;;;8.91;100.00;101052.06;4946385;28;20213;-72
2021/05/28 01:53:08;;;;;;;7.40;4.90;;;;;;;8.93;100.00;101049.44;4951375;28;20215;-73
2021/05/28 01:55:35;;;;;;;6.73;5.20;;;;;;;8.96;100.00;101054.63;4931252;28;20572;-73
2021/05/28 01:58:05;;;;;;;5.90;5.30;;;;;;;8.95;100.00;101053.72;4953987;28;20747;-73
2021/05/28 02:00:31;;;;;;;7.73;5.63;;;;;;;8.99;100.00;101058.03;4954591;28;20221;-72
2021/05/28 02:02:57;;;;;;;5.70;4.90;;;;;;;8.98;100.00;101058.03;4949967;28;20205;-73
2021/05/28 02:05:23;;;;;;;6.90;5.70;;;;;;;9.01;100.00;101058.88;4950955;28;20709;-73
2021/05/28 02:07:49;;;;;;;7.33;5.47;;;;;;;9.01;100.00;101055.41;4957324;28;20882;-73
2021/05/28 02:10:15;;;;;;;6.77;5.90;;;;;;;9.02;100.00;101055.41;4951359;28;20217;-73
2021/05/28 02:12:42;;;;;;;6.73;5.70;;;;;;;9.06;100.00;101051.00;4955313;28;20237;-73
2021/05/28 02:15:09;;;;;;;7.60;5.90;;;;;;;9.07;100.00;101056.16;4949960;28;20846;-73
2021/05/28 02:17:35;;;;;;;7.03;5.93;;;;;;;9.09;100.00;101058.75;4959726;28;20272;-73
2021/05/28 02:20:01;;;;;;;7.60;5.70;;;;;;;9.11;100.00;101059.59;4952012;28;20232;-72
2021/05/28 02:22:27;;;;;;;7.20;6.27;;;;;;;9.14;100.00;101061.31;4953329;28;20205;-72
2021/05/28 02:24:53;;;;;;;7.43;6.10;;;;;;;9.15;100.00;101061.28;4960471;28;20256;-73
2021/05/28 02:27:19;;;;;;;10.80;6.60;;;;;;;9.16;100.00;101046.53;4955793;28;20209;-73
2021/05/28 02:29:46;;;;;;;8.13;6.40;;;;;;;9.18;100.00;101056.06;4955533;28;21412;-73
2021/05/28 02:32:12;;;;;;;8.57;7.10;;;;;;;9.19;100.00;101056.91;4957860;28;20581;-73
2021/05/28 02:34:38;;;;;;;9.73;7.27;;;;;;;9.20;100.00;101061.22;4932731;28;20223;-73
2021/05/28 02:37:04;;;;;;;9.30;7.17;;;;;;;9.21;100.00;101056.00;4953433;28;20204;-73
2021/05/28 02:39:30;;;;;;;9.43;7.20;;;;;;;9.22;100.00;101056.88;4935659;28;21004;-73
2021/05/28 02:41:56;;;;;;;10.90;7.40;;;;;;;9.24;100.00;101060.31;4937535;28;20611;-73
2021/05/28 02:44:22;;;;;;;9.07;7.67;;;;;;;9.25;100.00;101062.00;4959594;28;20239;-73
2021/05/28 02:46:49;;;;;;;8.93;7.07;;;;;;;9.26;100.00;101062.00;4946278;28;20214;-73
2021/05/28 02:49:15;;;;;;;9.50;7.40;;;;;;;9.28;100.00;101064.59;4944814;28;20971;-73
2021/05/28 02:51:41;;;;;;;9.67;7.87;;;;;;;9.31;100.00;101068.91;4949848;28;20213;-73
2021/05/28 02:54:07;;;;;;;9.00;7.53;;;;;;;9.31;100.00;101067.16;4953634;28;20599;-73
2021/05/28 02:56:33;;;;;;;9.80;6.87;;;;;;;9.33;100.00;101069.72;4953493;28;20198;-72
2021/05/28 02:58:59;;;;;;;8.73;6.90;;;;;;;9.34;100.00;101074.91;4962509;28;20720;-73
2021/05/28 03:01:25;;;;;;;9.07;7.53;;;;;;;9.35;100.00;101074.03;4952187;28;20205;-73
2021/05/28 03:03:52;;;;;;;11.93;7.70;;;;;;;9.35;100.00;101073.16;4956640;28;20206;-73
2021/05/28 03:06:18;;;;;;;9.77;7.27;;;;;;;9.36;100.00;101080.09;4950167;28;20202;-73
2021/05/28 03:08:44;;;;;;;9.67;6.87;;;;;;;9.39;100.00;101080.03;4955485;28;20203;-73
2021/05/28 03:11:10;;;;;;;10.33;7.63;;;;;;;9.40;100.00;101079.16;4949378;28;20212;-73
2021/05/28 03:13:36;;;;;;;9.17;6.83;;;;;;;9.40;100.00;101092.19;4954310;28;20238;-73
2021/05/28 03:16:03;;;;;;;8.37;6.97;;;;;;;9.39;100.00;101086.13;4951105;28;20222;-73
2021/05/28 03:18:35;;;;;;;11.17;7.17;;;;;;;9.40;100.00;101092.19;4956286;28;20208;-73
2021/05/28 03:21:20;;;;;;;7.40;6.53;;;;;;;9.42;100.00;101093.03;4932139;28;20211;-72
2021/05/28 03:23:46;;;;;;;7.97;6.77;;;;;;;9.43;100.00;101086.94;4956320;28;20242;-73
2021/05/28 03:26:12;;;;;;;10.07;7.33;;;;;;;9.40;100.00;101090.44;4935758;29;20206;-72
2021/05/28 03:28:38;;;;;;;9.63;6.83;;;;;;;9.41;100.00;101093.88;4951183;28;20781;-73
2021/05/28 03:31:04;;;;;;;8.10;6.97;;;;;;;9.42;100.00;101093.03;4953679;28;20253;-73
2021/05/28 03:33:30;;;;;;;9.13;7.57;;;;;;;9.40;100.00;101095.63;4955361;28;20213;-73
2021/05/28 03:35:56;;;;;;;9.77;7.40;;;;;;;9.43;100.00;101092.16;4953154;28;20241;-73
2021/05/28 03:38:23;;;;;;;8.97;6.80;;;;;;;9.44;100.00;101097.31;4956370;28;20940;-73
2021/05/28 03:40:49;;;;;;;9.07;7.60;;;;;;;9.46;100.00;101095.56;4950629;28;20225;-73
2021/05/28 03:43:15;;;;;;;9.37;7.70;;;;;;;9.47;100.00;101099.88;4950883;28;20222;-73
2021/05/28 03:45:41;;;;;;;11.30;7.47;;;;;;;9.50;100.00;101104.19;4936902;28;20272;-73
2021/05/28 03:48:08;;;;;;;10.43;7.10;;;;;;;9.52;100.00;101105.03;4948197;28;20285;-72
2021/05/28 03:50:34;;;;;;;9.03;7.33;;;;;;;9.53;100.00;101105.88;4942402;28;20209;-72
2021/05/28 03:53:00;;;;;;;9.27;7.57;;;;;;;9.54;100.00;101113.66;4946543;28;20220;-73
2021/05/28 03:55:27;;;;;;;10.47;7.83;;;;;;;9.55;100.00;101118.00;4949684;28;20225;-73
2021/05/28 03:57:53;;;;;;;11.87;7.90;;;;;;;9.54;100.00;101118.88;4953282;28;20739;-73
2021/05/28 04:00:19;;;;;;;10.53;8.03;;;;;;;9.54;100.00;101118.88;4952454;28;20221;-73
2021/05/28 04:02:45;;;;;;;8.50;7.53;;;;;;;9.57;100.00;101120.56;4952442;28;20992;-73
2021/05/28 04:05:14;;;;;;;10.00;7.33;;;;;;;9.59;100.00;101119.69;4947469;28;20255;-72
2021/05/28 04:07:40;;;;;;;9.43;6.77;;;;;;;9.63;100.00;101112.69;4946458;28;20208;-72
2021/05/28 04:10:06;;;;;;;10.77;7.47;;;;;;;9.62;100.00;101110.94;4942212;28;20199;-73
2021/05/28 04:12:33;;;;;;;8.30;6.83;;;;;;;9.64;100.00;101114.41;4936330;28;20206;-72
2021/05/28 04:14:59;;;;;;;7.80;7.00;;;;;;;9.67;100.00;101116.94;4951939;28;20604;-73
2021/05/28 04:17:25;;;;;;;9.57;6.97;;;;;;;9.67;100.00;101106.53;4950368;28;20251;-73
2021/05/28 04:19:51;;;;;;;9.60;7.30;;;;;;;9.70;100.00;101119.53;4952103;28;20653;-73
2021/05/28 04:22:17;;;;;;;9.87;7.27;;;;;;;9.74;100.00;101117.72;4951470;28;20874;-73
2021/05/28 04:24:43;;;;;;;7.87;6.77;;;;;;;9.72;100.00;101124.72;4936905;28;20226;-73
2021/05/28 04:27:09;;;;;;;7.80;7.00;;;;;;;9.75;100.00;101124.66;4951974;28;20217;-74
2021/05/28 04:29:36;;;;;;;10.80;7.03;;;;;;;9.76;100.00;101134.19;4949890;28;20253;-75
2021/05/28 04:32:02;;;;;;;8.77;6.80;;;;;;;9.79;100.00;101128.94;4955509;28;20574;-75
2021/05/28 04:34:28;;;;;;;8.30;6.83;;;;;;;9.78;100.00;101133.28;4949056;28;20218;-75
2021/05/28 04:36:53;;;;;;;7.87;6.33;;;;;;;9.79;100.00;101132.41;4950479;28;20254;-75
2021/05/28 04:39:19;;;;;;;7.47;6.37;;;;;;;9.79;100.00;101129.78;4950986;28;20214;-75
2021/05/28 04:41:46;;;;;;;9.53;6.50;;;;;;;9.83;100.00;101136.69;4950053;28;20203;-75
2021/05/28 04:44:13;;;;;;;7.57;6.70;;;;;;;9.86;100.00;101140.97;4955365;28;20225;-73
2021/05/28 04:46:40;;;;;;;7.90;6.80;;;;;;;9.88;100.00;101136.59;4942537;28;20209;-73
2021/05/28 04:49:06;;;;;;;9.17;7.10;;;;;;;9.88;100.00;101143.56;4944665;28;20211;-72
2021/05/28 04:51:32;;;;;;;6.73;6.00;;;;;;;9.83;100.00;101141.03;4950792;28;20652;-73
2021/05/28 04:53:58;;;;;;;6.90;6.00;;;;;;;9.90;100.00;101141.78;4952211;28;20337;-73
2021/05/28 04:56:24;;;;;;;6.40;5.80;;;;;;;9.90;100.00;101147.00;4943009;28;20203;-73
2021/05/28 04:58:50;;;;;;;7.10;5.63;;;;;;;9.93;100.00;101146.97;4946602;28;20204;-72
2021/05/28 05:01:16;;;;;;;7.67;5.60;;;;;;;9.97;100.00;101154.72;4943908;28;20218;-72
2021/05/28 05:03:43;;;;;;;5.97;5.37;;;;;;;10.01;100.00;101159.00;4950506;28;20366;-72
2021/05/28 05:06:09;;;;;;;7.47;5.43;;;;;;;10.03;100.00;101156.38;4955254;28;20302;-73
2021/05/28 05:08:36;;;;;;;5.80;4.83;;;;;;;10.02;100.00;101155.47;4947815;28;20687;-72
2021/05/28 05:11:02;;;;;;;6.40;5.10;;;;;;;10.08;100.00;101161.50;4949311;28;20274;-72
2021/05/28 05:13:28;;;;;;;4.63;4.23;;;;;;;10.14;100.00;101172.69;4947103;28;20583;-72
2021/05/28 05:15:54;;;;;;;5.50;4.53;;;;;;;10.25;100.00;101167.28;4947219;28;20213;-72
2021/05/28 05:18:20;;;;;;;6.10;4.53;;;;;;;10.25;100.00;101172.50;4950336;28;20207;-72
2021/05/28 05:20:47;;;;;;;4.73;4.03;;;;;;;10.29;100.00;101165.50;4952890;28;20324;-74
2021/05/28 05:23:13;;;;;;;4.73;4.27;;;;;;;10.32;100.00;101166.34;4945552;28;20198;-74
2021/05/28 05:25:39;;;;;;;4.60;3.57;;;;;;;10.33;100.00;101169.84;4955543;28;20686;-74
2021/05/28 05:28:05;;;;;;;5.80;4.00;;;;;;;10.34;99.48;101176.75;4950337;28;20233;-74
2021/05/28 05:30:31;;;;;;;6.33;3.73;;;;;;;10.41;99.88;101178.38;4955135;28;20272;-74
2021/05/28 05:32:57;;;;;;;3.87;3.50;;;;;;;10.48;99.76;101184.34;4954319;28;20227;-74
2021/05/28 05:35:23;;;;;;;3.70;3.40;;;;;;;10.47;99.11;101180.03;4958196;28;20231;-72
2021/05/28 05:37:50;;;;;;;5.13;3.33;;;;;;;10.51;99.58;101181.69;4954114;28;20191;-72
2021/05/28 05:40:16;;;;;;;4.27;3.10;;;;;;;10.52;97.74;101189.50;4955931;28;20246;-72
2021/05/28 05:42:42;;;;;;;3.10;2.90;;;;;;;10.48;96.21;101189.56;4955567;28;20254;-72
2021/05/28 05:45:10;;;;;;;3.53;2.90;;;;;;;10.55;97.07;101185.97;4959815;28;20313;-72
2021/05/28 05:47:37;;;;;;;2.77;2.30;;;;;;;10.59;96.78;101191.09;4956770;28;20202;-72
2021/05/28 05:50:03;;;;;;;3.10;2.67;;;;;;;10.63;96.23;101186.69;4951040;28;20202;-72
2021/05/28 05:52:29;;;;;;;2.90;2.57;;;;;;;10.67;96.30;101190.97;4947313;28;20202;-72
2021/05/28 05:54:56;;;;;;;2.90;2.40;;;;;;;10.69;96.68;101191.78;4951991;28;20222;-73
2021/05/28 05:57:22;;;;;;;3.17;2.40;;;;;;;10.70;95.57;101196.13;4960948;28;20224;-72
2021/05/28 05:59:48;;;;;;;2.70;2.50;;;;;;;10.73;95.03;101196.09;4953669;28;20310;-72
2021/05/28 06:02:14;;;;;;;3.00;2.40;;;;;;;10.77;95.95;101200.34;4956365;28;20280;-72
2021/05/28 06:04:40;;;;;;;3.80;2.50;;;;;;;10.75;94.71;101199.53;4954645;28;20226;-73
2021/05/28 06:07:06;;;;;;;2.40;2.20;;;;;;;10.74;94.81;101207.38;4958699;28;20201;-72
2021/05/28 06:09:32;;;;;;;2.60;2.40;;;;;;;10.71;94.45;101208.28;4936087;28;20291;-73
2021/05/28 06:11:59;;;;;;;2.87;2.10;;;;;;;10.70;95.34;101217.00;4958770;28;20210;-73
2021/05/28 06:14:25;;;;;;;4.70;2.43;;;;;;;10.59;94.53;101214.56;4950660;28;20258;-73
2021/05/28 06:16:51;;;;;;;2.20;2.00;;;;;;;10.63;94.62;101220.59;4960279;28;20588;-72
2021/05/28 06:19:17;;;;;;;2.67;2.30;;;;;;;10.69;94.80;101222.22;4955331;28;20202;-72
2021/05/28 06:21:44;;;;;;;3.00;2.30;;;;;;;10.66;93.79;101219.66;4949022;28;20203;-73
2021/05/28 06:24:10;;;;;;;2.70;2.10;;;;;;;10.72;93.95;101223.03;4951771;28;20276;-72
2021/05/28 06:26:36;;;;;;;3.00;2.23;;;;;;;10.88;94.57;101218.41;4958466;28;20203;-72
2021/05/28 06:29:06;;;;;;;2.73;2.10;;;;;;;11.03;94.45;101225.13;4951096;28;20202;-72
2021/05/28 06:31:32;;;;;;;7.07;2.43;;;;;;;11.08;93.44;101222.41;4956051;28;20199;-72
2021/05/28 06:33:58;;;;;;;3.13;2.57;;;;;;;11.02;92.72;101228.59;4946339;28;20275;-72
2021/05/28 06:36:24;;;;;;;4.60;2.57;;;;;;;10.89;92.70;101222.75;4953180;28;20212;-72
2021/05/28 06:38:50;;;;;;;3.77;2.73;;;;;;;10.86;92.99;101229.78;4956714;28;20881;-72
2021/05/28 06:41:16;;;;;;;4.00;2.20;;;;;;;10.85;93.68;101223.69;4958519;28;20247;-72
2021/05/28 06:43:42;;;;;;;3.13;2.77;;;;;;;10.95;92.90;101238.28;4951694;28;20203;-73
2021/05/28 06:46:09;;;;;;;5.97;2.50;;;;;;;10.90;91.92;101236.66;4934666;28;20203;-73
2021/05/28 06:48:35;;;;;;;2.73;2.47;;;;;;;10.94;92.17;101233.09;4946456;28;20216;-72
2021/05/28 06:51:01;;;;;;;2.87;2.40;;;;;;;10.94;nan;101236.56;4952233;28;20270;-72
2021/05/28 06:53:27;;;;;;;3.00;2.03;;;;;;;10.98;92.28;101242.59;4952642;28;20279;-72
2021/05/28 06:55:53;;;;;;;2.87;2.67;;;;;;;10.90;91.87;101245.31;4938493;28;20875;-72
2021/05/28 06:58:20;;;;;;;2.97;2.30;;;;;;;10.93;92.50;101247.03;4934767;29;20201;-73
2021/05/28 07:00:47;;;;;;;3.50;2.30;;;;;;;10.89;91.01;101246.22;4939669;28;20226;-73
2021/05/28 07:03:14;;;;;;;4.23;2.77;;;;;;;10.84;90.86;101245.44;4957500;28;20678;-73
2021/05/28 07:05:40;;;;;;;7.00;4.40;;;;;;;10.84;91.10;101245.44;4948411;28;20244;-73
2021/05/28 07:08:06;;;;;;;3.70;3.07;;;;;;;10.70;91.10;101250.91;4955190;28;20830;-72
2021/05/28 07:10:32;;;;;;;2.80;2.60;;;;;;;10.73;91.47;101250.84;4952587;28;20733;-73
2021/05/28 07:12:58;;;;;;;3.63;2.83;;;;;;;10.76;91.89;101252.53;4953548;28;20214;-72
2021/05/28 07:15:25;;;;;;;3.30;3.00;;;;;;;10.82;92.38;101248.97;4949303;28;20227;-72
2021/05/28 07:17:51;;;;;;;3.30;3.00;;;;;;;10.86;92.04;101255.88;4949383;28;20203;-72
2021/05/28 07:20:18;;;;;;;3.00;2.70;;;;;;;10.84;91.42;101268.06;4952453;28;20211;-72
2021/05/28 07:22:44;;;;;;;3.40;3.10;;;;;;;10.80;91.05;101262.91;4932736;28;20663;-72
2021/05/28 07:25:11;;;;;;;4.60;3.60;;;;;;;10.87;91.51;101266.28;4948887;28;20227;-72
2021/05/28 07:27:37;;;;;;;5.73;2.60;;;;;;;11.01;90.55;101265.16;4925278;28;20218;-73
2021/05/28 07:30:08;;;;;;;2.97;2.67;;;;;;;11.10;90.84;101265.88;4932998;28;20692;-73
2021/05/28 07:32:34;;;;;;;4.00;2.37;;;;;;;11.29;90.79;101262.91;4943218;28;21133;-73
2021/05/28 07:35:00;;;;;;;2.40;2.20;;;;;;;11.55;90.32;101265.84;4948831;28;20222;-72
2021/05/28 07:37:27;;;;;;;3.37;2.33;;;;;;;11.75;88.06;101277.69;4946474;28;20212;-72
2021/05/28 07:39:53;;;;;;;4.43;2.50;;;;;;;11.79;86.43;101283.69;4949466;28;20651;-72
2021/05/28 07:42:19;;;;;;;2.20;2.10;;;;;;;11.90;86.38;101281.72;4944520;28;20207;-72
2021/05/28 07:44:45;;;;;;;3.17;2.10;;;;;;;12.10;86.56;101281.31;4950350;28;20216;-73
2021/05/28 07:47:12;;;;;;;3.67;2.13;;;;;;;12.13;84.46;101281.25;4936499;28;20212;-72
2021/05/28 07:49:38;;;;;;;2.50;2.30;;;;;;;12.35;86.53;101279.03;4934690;28;20204;-73
2021/05/28 07:52:05;;;;;;;2.80;2.50;;;;;;;12.44;83.10;101283.19;4946008;28;20202;-72
2021/05/28 07:54:32;;;;;;;3.67;2.30;;;;;;;12.58;83.54;101291.56;4947016;28;20226;-73
2021/05/28 07:56:58;;;;;;;2.50;2.30;;;;;;;12.40;81.98;101286.75;4944742;28;20294;-72
2021/05/28 07:59:24;;;;;;;2.30;2.10;;;;;;;12.38;84.61;101283.31;4916580;29;20201;-72
2021/05/28 08:01:50;;;;;;;2.60;2.07;;;;;;;12.23;83.38;101289.75;4950153;28;20222;-72
2021/05/28 08:04:16;;;;;;;3.23;2.10;;;;;;;12.24;83.83;101287.09;4954071;28;20662;-72
2021/05/28 08:06:42;;;;;;;2.43;2.23;;;;;;;12.27;82.74;101294.88;4948558;28;20679;-73
2021/05/28 08:09:08;;;;;;;3.23;2.00;;;;;;;12.19;82.38;101288.97;4946426;28;20204;-73
2021/05/28 08:11:35;;;;;;;2.67;2.10;;;;;;;12.32;83.95;101293.00;4935343;28;20949;-72
2021/05/28 08:14:01;;;;;;;2.20;2.00;;;;;;;12.49;83.48;101291.78;4930373;28;20690;-72
2021/05/28 08:16:27;;;;;;;2.10;1.97;;;;;;;12.64;84.42;101282.69;4953894;28;20214;-73
2021/05/28 08:18:53;;;;;;;2.63;2.43;;;;;;;12.97;83.87;101286.22;4956415;28;20273;-72
2021/05/28 08:21:20;;;;;;;3.20;2.83;;;;;;;12.95;81.85;101289.78;4949217;28;20277;-72
2021/05/28 08:23:46;;;;;;;4.07;3.50;;;;;;;13.06;83.09;101288.59;4936415;28;20286;-74
2021/05/28 08:26:12;;;;;;;2.67;2.40;;;;;;;13.24;82.25;101291.63;4929841;28;20285;-74
2021/05/28 08:28:39;;;;;;;1.67;1.57;;;;;;;13.20;78.92;101303.09;4933223;28;20199;-74
2021/05/28 08:31:06;;;;;;;2.60;1.60;;;;;;;13.11;78.72;101303.34;4951649;28;20213;-74
2021/05/28 08:33:33;;;;;;;3.13;1.73;;;;;;;12.95;79.80;101297.66;4956867;28;20202;-74
2021/05/28 08:36:00;;;;;;;1.53;1.43;;;;;;;12.84;79.56;101303.13;4945696;28;20225;-75
2021/05/28 08:38:26;;;;;;;1.40;1.30;;;;;;;12.80;80.23;101299.72;4938393;28;20207;-71
2021/05/28 08:40:52;;;;;;;1.80;1.60;;;;;;;12.72;81.90;101296.47;4933374;28;20237;-72
2021/05/28 08:43:18;;;;;;;1.60;1.50;;;;;;;12.46;81.68;101304.91;4949970;28;20213;-72
2021/05/28 08:45:47;;;;;;;1.53;1.43;;;;;;;12.23;82.07;101310.66;4948362;28;20222;-72
2021/05/28 08:48:15;;;;;;;1.50;1.33;;;;;;;12.22;82.37;101301.09;4942595;28;20277;-72
2021/05/28 08:50:43;;;;;;;1.37;1.27;;;;;;;12.22;82.27;101306.31;4949792;28;20222;-72
2021/05/28 08:53:11;;;;;;;2.43;1.20;;;;;;;12.40;81.01;101308.53;4949064;28;20214;-72
2021/05/28 08:55:39;;;;;;;1.50;1.13;;;;;;;12.46;79.77;101310.16;4948682;28;20300;-72
2021/05/28 08:58:06;;;;;;;1.47;1.30;;;;;;;12.69;81.02;101306.97;4953390;28;20202;-72
2021/05/28 09:00:32;;;;;;;1.30;1.20;;;;;;;13.01;81.42;101300.94;4951425;28;20214;-72
2021/05/28 09:03:20;;;;;;;1.40;1.30;;;;;;;13.23;77.67;101308.25;4956635;28;20210;-72
2021/05/28 09:05:46;;;;;;;2.50;1.40;;;;;;;13.59;79.58;101302.94;4955710;28;20397;-72
2021/05/28 09:08:12;;;;;;;2.00;1.80;;;;;;;13.89;79.05;101300.34;4935723;28;20203;-73
2021/05/28 09:10:39;;;;;;;1.40;1.30;;;;;;;14.30;79.62;101298.25;4950410;28;20707;-73
2021/05/28 09:13:11;;;;;;;1.97;1.73;;;;;;;14.51;74.55;101301.97;4948351;28;20796;-73
2021/05/28 09:15:38;;;;;;;2.30;1.53;;;;;;;14.67;76.63;101294.47;4940163;28;20238;-74
2021/05/28 09:18:05;;;;;;;1.50;1.40;;;;;;;14.57;75.77;101302.63;4952531;28;20208;-73
2021/05/28 09:20:31;;;;;;;1.63;1.03;;;;;;;13.89;76.25;101305.59;4952764;28;20212;-72
2021/05/28 09:23:19;;;;;;;0.90;0.90;;;;;;;12.78;86.78;101298.91;4948909;28;20198;-72
2021/05/28 09:25:57;;;;;;;1.13;1.00;;;;;;;12.20;92.01;101285.44;4942475;28;20905;-72
2021/05/28 09:28:24;;;;;;;1.43;1.10;;;;;;;12.02;95.02;101278.88;4938176;28;20201;-72
2021/05/28 09:30:57;;;;;;;1.97;0.93;;;;;;;12.00;95.53;101279.81;4946453;28;20213;-72
2021/05/28 09:33:25;;;;;;;1.13;1.00;;;;;;;11.97;97.40;101285.94;4945498;28;20203;-72
2021/05/28 09:35:52;;;;;;;1.27;1.17;;;;;;;12.01;97.26;101278.91;4951230;28;20245;-72
2021/05/28 09:38:22;;;;;;;1.20;1.10;;;;;;;11.94;95.91;101278.16;4957117;28;20654;-72
2021/05/28 09:40:47;;;;;;;1.90;1.40;;;;;;;12.17;99.09;101285.53;4947141;28;20231;-72
2021/05/28 09:43:22;;;;;;;1.97;1.40;;;;;;;12.61;100.00;101288.88;4935951;28;20610;-72
2021/05/28 09:45:49;;;;;;;2.10;1.90;;;;;;;12.74;95.13;101292.03;4949088;28;20224;-72
2021/05/28 09:48:30;;;;;;;1.77;1.67;;;;;;;13.03;95.41;101291.31;4953066;28;20203;-72
2021/05/28 09:50:58;;;;;;;1.70;1.60;;;;;;;13.36;93.10;101290.50;4930945;28;20198;-72
2021/05/28 09:53:33;;;;;;;2.30;2.10;;;;;;;13.77;96.40;101297.19;4947205;28;20686;-72
2021/05/28 09:56:00;;;;;;;1.50;1.40;;;;;;;13.58;92.93;101296.84;4928026;28;20327;-73
2021/05/28 09:58:56;;;;;;;1.60;1.47;;;;;;;13.46;94.70;101296.34;4953392;28;20210;-73
2021/05/28 10:01:22;;;;;;;2.03;1.80;;;;;;;13.16;94.29;101304.94;4937072;28;20270;-72
2021/05/28 10:04:00;;;;;;;2.10;1.80;;;;;;;12.87;93.99;101296.09;4944783;28;20223;-72
2021/05/28 10:06:28;;;;;;;1.77;1.67;;;;;;;12.72;95.35;101303.41;4943578;28;20321;-72
2021/05/28 10:08:55;;;;;;;1.70;1.50;;;;;;;12.53;94.66;101298.66;4950509;28;20206;-72
2021/05/28 10:11:21;;;;;;;1.97;1.87;;;;;;;12.61;97.77;101288.88;4939925;28;20202;-72
2021/05/28 10:13:47;;;;;;;1.80;1.70;;;;;;;12.69;96.88;101288.69;4944109;28;20741;-72
2021/05/28 10:16:14;;;;;;;2.13;1.80;;;;;;;12.65;96.05;101293.13;4956449;28;20783;-72
2021/05/28 10:18:40;;;;;;;2.07;1.80;;;;;;;12.76;95.36;101286.78;4943256;28;20300;-72
2021/05/28 10:21:07;;;;;;;2.97;2.10;;;;;;;13.07;97.39;101279.84;4949482;28;20305;-72
2021/05/28 10:23:33;;;;;;;3.77;2.00;;;;;;;13.46;97.04;101272.78;4950033;28;20298;-72
2021/05/28 10:25:59;;;;;;;2.40;2.20;;;;;;;13.61;94.75;101278.44;4951946;28;20254;-73
2021/05/28 10:28:30;;;;;;;3.07;2.07;;;;;;;13.70;94.44;101282.56;4951371;28;20205;-72
2021/05/28 10:30:56;;;;;;;2.17;1.97;;;;;;;13.70;90.96;101290.44;4931899;29;20854;-72
2021/05/28 10:33:24;;;;;;;3.53;1.80;;;;;;;13.74;91.56;101284.19;4936768;28;20218;-72
2021/05/28 10:35:51;;;;;;;1.73;1.63;;;;;;;13.49;91.28;101289.25;4948922;28;20227;-72
2021/05/28 10:38:37;;;;;;;2.20;1.53;;;;;;;13.37;91.61;101282.59;4938999;28;20210;-72
2021/05/28 10:41:31;;;;;;;2.53;1.63;;;;;;;13.43;93.47;101285.03;4945395;28;20252;-72
2021/05/28 10:44:00;;;;;;;1.67;1.57;;;;;;;13.66;96.29;101274.81;4949885;28;20289;-72
2021/05/28 10:46:26;;;;;;;1.63;1.53;;;;;;;13.68;92.52;101276.47;4948998;28;20270;-72
2021/05/28 10:49:13;;;;;;;1.20;1.10;;;;;;;13.66;87.46;101283.53;4953788;28;20274;-72
2021/05/28 10:51:59;;;;;;;1.30;1.20;;;;;;;13.75;86.45;101285.88;4948187;28;20199;-72
2021/05/28 10:54:28;;;;;;;1.30;1.20;;;;;;;13.81;89.75;101277.84;4948312;28;20740;-73
2021/05/28 10:56:54;;;;;;;0.97;0.97;;;;;;;13.60;82.97;101295.06;4951327;28;20202;-72
2021/05/28 10:59:21;;;;;;;1.00;1.00;;;;;;;13.51;84.10;101289.19;4953732;28;20262;-72
2021/05/28 11:01:48;;;;;;;0.90;0.90;;;;;;;13.43;82.51;101289.41;4950626;28;20233;-72
2021/05/28 11:04:16;;;;;;;1.00;1.00;;;;;;;13.51;84.30;101287.47;4951009;28;20292;-72
2021/05/28 11:07:14;;;;;;;2.60;1.00;;;;;;;13.57;83.50;101289.03;4950099;28;20194;-72
2021/05/28 11:09:42;;;;;;;0.97;0.97;;;;;;;13.80;86.41;101277.91;4950798;28;20207;-72
2021/05/28 11:12:09;;;;;;;1.27;1.17;;;;;;;14.05;85.11;101272.78;4953382;28;20261;-73
2021/05/28 11:14:37;;;;;;;2.03;1.03;;;;;;;14.08;84.14;101285.78;4949395;28;20213;-72
2021/05/28 11:17:15;;;;;;;1.10;1.00;;;;;;;13.95;82.79;101290.56;4955656;28;20198;-72
2021/05/28 11:19:44;;;;;;;0.80;0.80;;;;;;;13.78;80.81;101300.66;4948753;28;20253;-73
2021/05/28 11:22:12;;;;;;;0.90;0.80;;;;;;;13.72;79.34;101300.84;4947074;28;20218;-73
2021/05/28 11:24:43;;;;;;;0.60;0.60;;;;;;;13.72;79.56;101299.09;4950715;28;20362;-73
2021/05/28 11:27:13;;;;;;;0.70;0.70;;;;;;;13.90;82.39;101296.84;4956308;28;20210;-73
2021/05/28 11:29:39;;;;;;;0.70;0.70;;;;;;;14.12;84.40;101297.91;4946239;28;20734;-73